Time;durP1;ratioP1;P1;durP2;ratioP2;P2;SDS_P1;SDS_P2;PMS_P1;PMS_P2;Temp;Humidity;BMP_temperature;BMP_pressure;BME280_temperature;BME280_humidity;BME280_pressure;Samples;Min_cycle;Max_cycle;Signal;HPM_P1;HPM_P2
2024/01/20 00:06:19;;;;;;;2.07;1.60;;;;;;;-145.06;100.00;60892.56;5803533;23;20012;-92
2024/01/20 00:15:12;;;;;;;;;;;;;;;;;;;;;
2024/01/20 00:18:05;;;;;;;2.53;1.73;;;;;;;-145.06;100.00;60892.56;5917247;23;20504;-90
2024/01/20 00:21:32;;;;;;;2.83;1.93;;;;;;;-145.06;100.00;60892.56;5927263;23;20314;-91
2024/01/20 00:24:16;;;;;;;2.47;1.63;;;;;;;-145.06;100.00;60892.56;5907866;23;20463;-90
2024/01/20 00:27:29;;;;;;;3.43;1.97;;;;;;;-145.06;100.00;60892.56;5907311;23;20029;-90
2024/01/20 00:30:29;;;;;;;3.30;2.03;;;;;;;-145.06;100.00;60892.56;5906145;23;20093;-89
2024/01/20 00:33:40;;;;;;;3.40;1.60;;;;;;;-145.06;100.00;60892.56;5906105;23;20416;-88
2024/01/20 00:36:33;;;;;;;2.73;1.80;;;;;;;-145.06;100.00;60892.56;5926120;23;20425;-90
2024/01/20 00:39:28;;;;;;;2.50;1.73;;;;;;;-145.06;100.00;60892.56;5906410;23;20081;-90
2024/01/20 00:42:16;;;;;;;2.63;1.93;;;;;;;-145.06;100.00;60892.56;5906776;23;20447;-93
2024/01/20 00:45:14;;;;;;;3.00;1.93;;;;;;;-145.06;100.00;60892.56;5906844;23;20014;-92
2024/01/20 00:48:34;;;;;;;;;;;;;;;;;;;;;
2024/01/20 00:51:45;;;;;;;;;;;;;;;-145.06;100.00;60892.56;5917638;23;20064;-90
2024/01/20 00:54:38;;;;;;;2.77;2.07;;;;;;;-145.06;100.00;60892.56;5907895;23;19905;-91
2024/01/20 00:57:25;;;;;;;3.10;1.77;;;;;;;-145.06;100.00;60892.56;5906980;23;20006;-92
2024/01/20 01:03:53;;;;;;;2.17;1.47;;;;;;;-145.06;100.00;60892.56;5858571;23;20473;-92
2024/01/20 01:07:15;;;;;;;2.50;1.60;;;;;;;-145.06;100.00;60892.56;5849258;23;20034;-89
2024/01/20 01:09:58;;;;;;;3.10;1.80;;;;;;;-145.06;100.00;60892.56;5906623;23;20005;-91
2024/01/20 01:12:54;;;;;;;3.50;2.03;;;;;;;-145.06;100.00;60892.56;5906775;23;20006;-92
2024/01/20 01:16:05;;;;;;;2.60;1.60;;;;;;;-145.06;100.00;60892.56;5906986;23;20037;-91
2024/01/20 01:18:53;;;;;;;2.57;1.60;;;;;;;-145.06;100.00;60892.56;5907024;23;20017;-91
2024/01/20 01:21:48;;;;;;;3.20;1.80;;;;;;;-145.06;100.00;60892.56;5906985;23;20014;-92
2024/01/20 01:24:49;;;;;;;3.20;1.83;;;;;;;-145.06;100.00;60892.56;5907062;23;20393;-92
2024/01/20 01:31:32;;;;;;;2.53;1.70;;;;;;;-145.06;100.00;60892.56;5917778;23;20005;-93
2024/01/20 01:34:25;;;;;;;1.57;1.23;;;;;;;-145.06;100.00;60892.56;5912154;23;20021;-92
2024/01/20 01:37:42;;;;;;;2.23;1.63;;;;;;;-145.06;100.00;60892.56;5934733;23;20013;-93
2024/01/20 01:41:06;;;;;;;2.10;1.33;;;;;;;-145.06;100.00;60892.56;5935566;23;20001;-92
2024/01/20 01:44:05;;;;;;;2.73;1.60;;;;;;;-145.06;100.00;60892.56;5915209;23;20033;-91
2024/01/20 01:47:03;;;;;;;2.92;1.63;;;;;;;-145.06;100.00;60892.56;5914750;23;20006;-91
2024/01/20 01:50:04;;;;;;;2.33;1.67;;;;;;;-145.06;100.00;60892.56;5905211;23;20033;-91
2024/01/20 01:53:03;;;;;;;1.90;1.40;;;;;;;-145.06;100.00;60892.56;5905392;23;20009;-93
2024/01/20 01:56:19;;;;;;;2.33;1.73;;;;;;;-145.06;100.00;60892.56;5905212;23;20006;-92
2024/01/20 02:10:14;;;;;;;2.13;1.27;;;;;;;-145.06;100.00;60892.56;5868426;23;20018;-90
2024/01/20 02:16:45;;;;;;;2.47;1.53;;;;;;;-145.06;100.00;60892.56;5917254;23;20010;-89
2024/01/20 02:19:50;;;;;;;3.78;1.70;;;;;;;-145.06;100.00;60892.56;5906827;23;20006;-90
2024/01/20 02:23:12;;;;;;;4.37;1.90;;;;;;;-145.06;100.00;60892.56;5906551;23;20006;-90
2024/01/20 02:26:33;;;;;;;1.83;1.17;;;;;;;-145.06;100.00;60892.56;5906986;23;20088;-92
2024/01/20 02:30:12;;;;;;;2.00;1.50;;;;;;;-145.06;100.00;60892.56;5906335;23;20014;-91
2024/01/20 02:33:27;;;;;;;;;;;;;;;-145.06;100.00;60892.56;5906884;23;20481;-91
2024/01/20 02:36:43;;;;;;;2.07;1.10;;;;;;;-145.06;100.00;60892.56;5905951;23;19909;-92
2024/01/20 02:39:56;;;;;;;2.03;1.13;;;;;;;-145.06;100.00;60892.56;5905716;23;20488;-89
2024/01/20 02:43:00;;;;;;;1.73;1.20;;;;;;;-145.06;100.00;60892.56;5905999;23;20009;-91
2024/01/20 02:45:48;;;;;;;1.97;1.30;;;;;;;-145.06;100.00;60892.56;5906151;23;20006;-92
2024/01/20 02:48:54;;;;;;;1.90;1.20;;;;;;;-145.06;100.00;60892.56;5906252;23;20010;-91
2024/01/20 02:51:53;;;;;;;2.07;1.60;;;;;;;-145.06;100.00;60892.56;5905511;23;20381;-92
2024/01/20 02:54:37;;;;;;;2.13;1.30;;;;;;;-145.06;100.00;60892.56;5905913;23;20033;-92
2024/01/20 02:57:25;;;;;;;1.90;1.40;;;;;;;-145.06;100.00;60892.56;5906117;23;20006;-90
2024/01/20 03:00:17;;;;;;;1.90;1.40;;;;;;;-145.06;100.00;60892.56;5906537;23;20045;-89
2024/01/20 03:03:20;;;;;;;2.07;1.27;;;;;;;-145.06;100.00;60892.56;5905948;23;20006;-89
2024/01/20 03:06:27;;;;;;;2.47;1.40;;;;;;;-145.06;100.00;60892.56;5905924;23;20480;-89
2024/01/20 03:09:27;;;;;;;1.43;1.17;;;;;;;-145.06;100.00;60892.56;5905770;23;20010;-89
2024/01/20 03:12:09;;;;;;;1.53;1.07;;;;;;;-145.06;100.00;60892.56;5905168;23;20010;-91
2024/01/20 03:15:24;;;;;;;1.50;1.13;;;;;;;-145.06;100.00;60892.56;5905602;23;20006;-89
2024/01/20 03:19:05;;;;;;;;;;;;;;;;;;;;;
2024/01/20 03:21:45;;;;;;;2.30;1.43;;;;;;;-145.06;100.00;60892.56;5916357;23;20010;-91
2024/01/20 03:24:29;;;;;;;1.80;1.30;;;;;;;-145.06;100.00;60892.56;5905507;23;20010;-89
2024/01/20 03:27:22;;;;;;;1.77;1.27;;;;;;;-145.06;100.00;60892.56;5905303;23;20699;-91
2024/01/20 03:30:07;;;;;;;1.87;1.20;;;;;;;-145.06;100.00;60892.56;5926476;23;20010;-92
2024/01/20 03:32:47;;;;;;;1.30;1.00;;;;;;;-145.06;100.00;60892.56;5904662;23;20002;-88
2024/01/20 03:35:32;;;;;;;2.30;1.40;;;;;;;-145.06;100.00;60892.56;5905326;23;20564;-92
2024/01/20 03:38:20;;;;;;;1.40;1.00;;;;;;;-145.06;100.00;60892.56;5905265;23;20014;-90
2024/01/20 03:41:14;;;;;;;2.00;1.03;;;;;;;-145.06;100.00;60892.56;5904768;23;20036;-91
2024/01/20 03:43:57;;;;;;;1.10;1.00;;;;;;;-145.06;100.00;60892.56;5905175;23;20018;-90
2024/01/20 03:46:44;;;;;;;1.40;1.00;;;;;;;-145.06;100.00;60892.56;5905030;23;20006;-90
2024/01/20 03:49:36;;;;;;;1.63;1.30;;;;;;;-145.06;100.00;60892.56;5905047;23;20014;-89
2024/01/20 03:52:23;;;;;;;1.40;1.10;;;;;;;-145.06;100.00;60892.56;5906249;23;20010;-88
2024/01/20 03:55:06;;;;;;;2.33;1.63;;;;;;;-145.06;100.00;60892.56;5906300;23;20006;-90
2024/01/20 03:58:22;;;;;;;4.60;2.33;;;;;;;-145.06;100.00;60892.56;5906461;23;20010;-92
2024/01/20 04:01:20;;;;;;;4.13;2.53;;;;;;;-145.06;100.00;60892.56;5906046;23;20010;-91
2024/01/20 04:04:00;;;;;;;5.53;3.60;;;;;;;-145.06;100.00;60892.56;5906371;23;20010;-91
2024/01/20 04:06:54;;;;;;;6.63;3.75;;;;;;;-145.06;100.00;60892.56;5906597;23;20006;-91
2024/01/20 04:09:38;;;;;;;5.13;3.07;;;;;;;-145.06;100.00;60892.56;5926910;23;20014;-91
2024/01/20 04:12:35;;;;;;;4.07;2.40;;;;;;;-145.06;100.00;60892.56;5906160;23;20014;-91
2024/01/20 04:15:20;;;;;;;4.23;2.67;;;;;;;-145.06;100.00;60892.56;5905464;23;20014;-90
2024/01/20 04:18:20;;;;;;;4.87;2.60;;;;;;;-145.06;100.00;60892.56;5906041;23;20200;-90
2024/01/20 04:21:14;;;;;;;3.73;2.33;;;;;;;-145.06;100.00;60892.56;5906266;23;20006;-91
2024/01/20 04:24:06;;;;;;;4.47;2.57;;;;;;;-145.06;100.00;60892.56;5905959;23;20010;-92
2024/01/20 04:27:08;;;;;;;3.83;2.40;;;;;;;-145.06;100.00;60892.56;5906820;23;20458;-92
2024/01/20 04:29:56;;;;;;;2.90;2.20;;;;;;;-145.06;100.00;60892.56;5905969;23;20071;-90
2024/01/20 04:32:41;;;;;;;4.47;2.07;;;;;;;-145.06;100.00;60892.56;5905973;23;20041;-92
2024/01/20 04:35:21;;;;;;;4.27;2.63;;;;;;;-145.06;100.00;60892.56;5906160;23;20034;-92
2024/01/20 04:38:13;;;;;;;4.05;2.10;;;;;;;-145.06;100.00;60892.56;5906196;23;20014;-90
2024/01/20 04:40:58;;;;;;;3.40;2.37;;;;;;;-145.06;100.00;60892.56;5906298;23;20080;-91
2024/01/20 04:43:37;;;;;;;3.67;1.90;;;;;;;-145.06;100.00;60892.56;5906096;23;20484;-91
2024/01/20 04:46:20;;;;;;;2.83;1.95;;;;;;;-145.06;100.00;60892.56;5906308;23;20445;-91
2024/01/20 04:49:09;;;;;;;3.53;2.03;;;;;;;-145.06;100.00;60892.56;5905814;23;20733;-92
2024/01/20 04:51:53;;;;;;;2.92;1.75;;;;;;;-145.06;100.00;60892.56;5916654;23;20006;-91
2024/01/20 04:54:38;;;;;;;3.03;1.90;;;;;;;-145.06;100.00;60892.56;5906346;23;20073;-91
2024/01/20 04:57:30;;;;;;;2.53;1.80;;;;;;;-145.06;100.00;60892.56;5905872;23;20394;-90
2024/01/20 05:00:12;;;;;;;2.37;1.77;;;;;;;-145.06;100.00;60892.56;5906079;23;20010;-90
2024/01/20 05:02:54;;;;;;;2.57;1.97;;;;;;;-145.06;100.00;60892.56;5905006;23;20014;-90
2024/01/20 05:05:50;;;;;;;5.07;1.90;;;;;;;-145.06;100.00;60892.56;5905548;23;20036;-90
2024/01/20 05:08:37;;;;;;;3.30;2.27;;;;;;;-145.06;100.00;60892.56;5905933;23;20009;-91
2024/01/20 05:11:19;;;;;;;3.63;2.37;;;;;;;-145.06;100.00;60892.56;5905546;23;20041;-91
2024/01/20 05:14:03;;;;;;;3.80;2.13;;;;;;;-145.06;100.00;60892.56;5906026;23;20006;-90
2024/01/20 05:17:22;;;;;;;4.83;2.30;;;;;;;-145.06;100.00;60892.56;5916232;23;20080;-90
2024/01/20 05:20:01;;;;;;;2.33;1.87;;;;;;;-145.06;100.00;60892.56;5905266;23;20010;-91
2024/01/20 05:22:46;;;;;;;3.50;2.10;;;;;;;-145.06;100.00;60892.56;5905725;23;20010;-91
2024/01/20 05:25:28;;;;;;;4.37;2.10;;;;;;;-145.06;100.00;60892.56;5905314;23;20202;-89
2024/01/20 05:28:13;;;;;;;3.87;2.30;;;;;;;-145.06;100.00;60892.56;5906376;23;20036;-91
2024/01/20 05:31:14;;;;;;;4.20;2.23;;;;;;;-145.06;100.00;60892.56;5916674;23;20010;-92
2024/01/20 05:34:02;;;;;;;2.90;2.03;;;;;;;-145.06;100.00;60892.56;5905537;23;20002;-92
2024/01/20 05:36:50;;;;;;;3.73;2.07;;;;;;;-145.06;100.00;60892.56;5905343;23;20314;-93
2024/01/20 05:39:30;;;;;;;2.97;1.70;;;;;;;-145.06;100.00;60892.56;5877484;23;20010;-90
2024/01/20 05:42:14;;;;;;;3.08;2.10;;;;;;;-145.06;100.00;60892.56;5887834;23;20298;-90
2024/01/20 05:45:04;;;;;;;2.67;1.87;;;;;;;-145.06;100.00;60892.56;5877107;23;20033;-89
2024/01/20 05:47:49;;;;;;;;;;;;;;;-145.06;100.00;60892.56;5877636;23;20037;-91
2024/01/20 05:50:37;;;;;;;1.67;1.30;;;;;;;-145.06;100.00;60892.56;5877159;23;19905;-90
2024/01/20 05:53:29;;;;;;;2.20;1.53;;;;;;;-145.06;100.00;60892.56;5877051;23;20002;-90
2024/01/20 05:56:11;;;;;;;2.17;1.43;;;;;;;-145.06;100.00;60892.56;5877446;23;20015;-90
2024/01/20 05:58:55;;;;;;;2.30;1.50;;;;;;;-145.06;100.00;60892.56;5876799;23;20093;-92
2024/01/20 06:01:41;;;;;;;2.37;1.67;;;;;;;-145.06;100.00;60892.56;5877042;23;20085;-91
2024/01/20 06:04:21;;;;;;;2.20;1.73;;;;;;;-145.06;100.00;60892.56;5887477;23;20007;-92
2024/01/20 06:07:03;;;;;;;1.83;1.63;;;;;;;-145.06;100.00;60892.56;5876914;23;20014;-90
2024/01/20 06:09:58;;;;;;;2.27;1.40;;;;;;;-145.06;100.00;60892.56;5878720;23;20006;-91
2024/01/20 06:12:38;;;;;;;2.50;1.50;;;;;;;-145.06;100.00;60892.56;5876729;23;20010;-91
2024/01/20 06:15:30;;;;;;;1.80;1.10;;;;;;;-145.06;100.00;60892.56;5848655;23;20026;-90
2024/01/20 06:18:09;;;;;;;2.30;1.70;;;;;;;-145.06;100.00;60892.56;5849127;23;20010;-90
2024/01/20 06:20:55;;;;;;;2.15;1.50;;;;;;;-145.06;100.00;60892.56;5850029;23;20015;-91
2024/01/20 06:23:35;;;;;;;2.13;1.40;;;;;;;-145.06;100.00;60892.56;5850554;23;20031;-90
2024/01/20 06:26:17;;;;;;;3.73;1.80;;;;;;;-145.06;100.00;60892.56;5859171;23;20007;-91
2024/01/20 06:28:57;;;;;;;3.67;1.80;;;;;;;-145.06;100.00;60892.56;5848966;23;20015;-91
2024/01/20 06:31:41;;;;;;;2.92;1.75;;;;;;;-145.06;100.00;60892.56;5848820;23;20429;-91
2024/01/20 06:34:20;;;;;;;2.50;1.60;;;;;;;-145.06;100.00;60892.56;5847967;23;20003;-92
2024/01/20 06:37:02;;;;;;;2.40;1.73;;;;;;;-145.06;100.00;60892.56;5848243;23;20015;-90
2024/01/20 06:39:49;;;;;;;3.10;1.60;;;;;;;-145.06;100.00;60892.56;5848185;23;20236;-91
2024/01/20 06:42:30;;;;;;;3.10;1.70;;;;;;;-145.06;100.00;60892.56;5859327;23;20036;-90
2024/01/20 06:45:09;;;;;;;2.40;1.73;;;;;;;-145.06;100.00;60892.56;5848582;23;20014;-90
2024/01/20 06:47:54;;;;;;;4.38;2.13;;;;;;;-145.06;100.00;60892.56;5848400;23;20014;-91
2024/01/20 06:50:36;;;;;;;5.43;2.20;;;;;;;-145.06;100.00;60892.56;5848584;23;20323;-91
2024/01/20 06:53:15;;;;;;;6.07;2.53;;;;;;;-145.06;100.00;60892.56;5847936;23;20003;-90
2024/01/20 06:55:54;;;;;;;5.05;2.53;;;;;;;-145.06;100.00;60892.56;5848320;23;20014;-91
2024/01/20 06:58:34;;;;;;;4.90;2.70;;;;;;;-145.06;100.00;60892.56;5848887;23;20082;-90
2024/01/20 07:01:16;;;;;;;3.90;2.20;;;;;;;-145.06;100.00;60892.56;5848082;23;20042;-91
2024/01/20 07:04:07;;;;;;;5.30;2.40;;;;;;;-145.06;100.00;60892.56;5848463;23;20323;-90
2024/01/20 07:07:00;;;;;;;3.87;2.00;;;;;;;-145.06;100.00;60892.56;5848566;23;20339;-91
2024/01/20 07:09:39;;;;;;;4.07;2.40;;;;;;;-2.31;100.00;60892.56;5858914;23;20034;-91
2024/01/20 07:12:21;;;;;;;2.70;1.97;;;;;;;-145.06;100.00;60892.56;5848180;23;20425;-90
2024/01/20 07:15:05;;;;;;;4.43;2.27;;;;;;;-145.06;100.00;60892.56;5848585;23;20006;-90
2024/01/20 07:17:47;;;;;;;4.13;2.30;;;;;;;-145.06;100.00;60892.56;5849303;23;20007;-90
2024/01/20 07:20:26;;;;;;;3.90;2.17;;;;;;;-145.06;100.00;60892.56;5848651;23;20437;-91
2024/01/20 07:23:06;;;;;;;3.50;2.00;;;;;;;-145.06;100.00;60892.56;5848623;23;20007;-91
2024/01/20 07:25:48;;;;;;;2.83;1.90;;;;;;;-5.01;100.00;60892.56;5848849;23;20319;-89
2024/01/20 07:28:30;;;;;;;2.50;1.60;;;;;;;-145.06;100.00;60892.56;5849966;23;20054;-92
2024/01/20 07:31:09;;;;;;;2.80;2.00;;;;;;;-145.06;100.00;60892.56;5849916;23;20034;-89
2024/01/20 07:33:51;;;;;;;4.95;2.90;;;;;;;-145.06;100.00;60892.56;5849699;23;20003;-88
2024/01/20 07:36:33;;;;;;;4.00;2.47;;;;;;;0.29;100.00;60892.56;5850026;23;20429;-91
2024/01/20 07:39:20;;;;;;;3.80;2.70;;;;;;;21.08;100.00;60892.56;5849405;23;20014;-92
2024/01/20 07:42:08;;;;;;;5.63;2.80;;;;;;;-145.06;100.00;60892.56;5850323;23;20090;-90
2024/01/20 07:45:07;;;;;;;;;;;;;;;;;;;;;
2024/01/20 07:47:49;;;;;;;3.67;2.27;;;;;;;-145.06;100.00;60892.56;5860199;23;20019;-93
2024/01/20 07:50:32;;;;;;;2.90;1.83;;;;;;;-145.06;100.00;60892.56;5849044;23;20038;-90
2024/01/20 07:53:16;;;;;;;3.50;2.07;;;;;;;-4.90;100.00;60892.56;5849897;23;20011;-92
2024/01/20 07:56:00;;;;;;;3.43;2.00;;;;;;;-145.06;100.00;60892.56;5849558;23;20010;-91
2024/01/20 07:58:40;;;;;;;2.73;2.10;;;;;;;-145.06;100.00;60892.56;5850252;23;20374;-91
2024/01/20 08:01:31;;;;;;;3.60;1.83;;;;;;;-145.06;100.00;60892.56;5849840;23;20014;-90
2024/01/20 08:04:10;;;;;;;3.47;1.80;;;;;;;0.29;100.00;60892.56;5849111;23;20425;-90
2024/01/20 08:07:03;;;;;;;2.85;1.65;;;;;;;-145.06;100.00;60892.56;5849559;23;20011;-89
2024/01/20 08:09:43;;;;;;;4.07;2.10;;;;;;;-145.06;100.00;60892.56;5847446;23;20707;-91
2024/01/20 08:12:22;;;;;;;4.15;1.98;;;;;;;-145.06;100.00;60892.56;5859824;23;20010;-90
2024/01/20 08:15:02;;;;;;;3.30;1.73;;;;;;;-145.06;100.00;60892.56;5859285;23;20003;-91
2024/01/20 08:17:50;;;;;;;4.10;2.22;;;;;;;-145.06;100.00;60892.56;5849610;23;20007;-89
2024/01/20 08:20:41;;;;;;;4.03;2.30;;;;;;;-145.06;100.00;60892.56;5849138;23;20323;-89
2024/01/20 08:23:23;;;;;;;3.07;1.87;;;;;;;-145.06;100.00;60892.56;5846882;23;20011;-91
2024/01/20 08:26:08;;;;;;;3.63;2.30;;;;;;;-145.06;100.00;60892.56;5848966;23;20757;-91
2024/01/20 08:29:04;;;;;;;2.57;1.70;;;;;;;0.29;100.00;60892.56;5849059;23;20430;-91
2024/01/20 08:31:43;;;;;;;3.47;1.60;;;;;;;-145.06;100.00;60892.56;5849073;23;20011;-91
2024/01/20 08:34:22;;;;;;;2.92;1.50;;;;;;;-145.06;100.00;60892.56;5859120;23;20006;-90
2024/01/20 08:37:01;;;;;;;2.17;1.42;;;;;;;-145.06;100.00;60892.56;5847275;23;20011;-91
2024/01/20 08:39:40;;;;;;;2.10;1.60;;;;;;;-145.06;100.00;60892.56;5847094;23;20003;-90
2024/01/20 08:42:19;;;;;;;1.33;1.20;;;;;;;-145.06;100.00;60892.56;5848026;23;20015;-91
2024/01/20 08:44:58;;;;;;;2.10;1.40;;;;;;;161.33;100.00;60892.56;5847420;23;20007;-90
2024/01/20 08:47:38;;;;;;;3.38;1.63;;;;;;;-5.05;100.00;60892.56;5847005;23;20086;-90
2024/01/20 08:50:17;;;;;;;2.95;1.65;;;;;;;-145.06;100.00;60892.56;5848010;23;20006;-89
2024/01/20 08:53:04;;;;;;;2.10;1.40;;;;;;;-145.06;100.00;60892.56;5849296;23;20078;-91
2024/01/20 08:56:06;;;;;;;3.93;2.20;;;;;;;-145.06;100.00;60892.56;5848715;23;20014;-91
2024/01/20 08:58:49;;;;;;;2.10;1.27;;;;;;;-145.06;100.00;60892.56;5848395;23;20007;-90
2024/01/20 09:01:28;;;;;;;3.50;1.70;;;;;;;-145.06;100.00;60892.56;5848642;23;20034;-89
2024/01/20 09:04:14;;;;;;;3.97;1.80;;;;;;;-4.93;100.00;60892.56;5849443;23;20011;-90
2024/01/20 09:06:53;;;;;;;2.57;1.60;;;;;;;-145.06;100.00;60892.56;5848933;23;20007;-90
2024/01/20 09:09:32;;;;;;;2.92;1.50;;;;;;;-145.06;100.00;60892.56;5849529;23;20007;-91
2024/01/20 09:12:11;;;;;;;2.47;1.48;;;;;;;-145.06;100.00;60892.56;5849405;23;20031;-90
2024/01/20 09:15:02;;;;;;;1.33;0.93;;;;;;;-145.06;100.00;60892.56;5847333;23;20319;-91
2024/01/20 09:18:02;;;;;;;2.40;1.60;;;;;;;187.52;100.00;60892.56;5848538;23;20007;-91
2024/01/20 09:21:07;;;;;;;2.50;1.50;;;;;;;-145.06;100.00;60892.56;5848796;23;20314;-91
2024/01/20 09:23:52;;;;;;;2.20;1.43;;;;;;;-145.06;100.00;60892.56;5848883;23;20003;-92
2024/01/20 09:27:11;;;;;;;1.87;1.53;;;;;;;-145.06;100.00;60892.56;5848965;23;20010;-91
2024/01/20 09:30:00;;;;;;;1.90;1.30;;;;;;;-145.06;100.00;60892.56;5848758;23;20011;-91
2024/01/20 09:32:39;;;;;;;2.08;1.25;;;;;;;-3.60;100.00;60892.56;5849271;23;20046;-90
2024/01/20 09:35:31;;;;;;;1.73;1.20;;;;;;;-145.06;100.00;60892.56;5848846;23;20014;-91
2024/01/20 09:38:28;;;;;;;2.17;1.43;;;;;;;-145.06;100.00;60892.56;5849793;23;20078;-92
2024/01/20 09:41:42;;;;;;;1.50;1.30;;;;;;;-145.06;100.00;60892.56;5848919;23;20477;-92
2024/01/20 09:44:58;;;;;;;2.03;1.10;;;;;;;-145.06;100.00;60892.56;5849494;23;20011;-92
2024/01/20 09:47:43;;;;;;;1.93;1.20;;;;;;;-145.06;100.00;60892.56;5848112;23;20007;-90
2024/01/20 09:50:22;;;;;;;1.90;1.33;;;;;;;-145.06;100.00;60892.56;5826957;23;20442;-90
2024/01/20 09:57:13;;;;;;;;;;;;;;;;;;;;;
2024/01/20 10:00:53;;;;;;;1.37;1.17;;;;;;;-145.06;100.00;60892.56;5876217;23;20019;-91
2024/01/20 10:04:20;;;;;;;2.07;1.20;;;;;;;-145.06;100.00;60892.56;5929761;23;20164;-91
2024/01/20 10:07:18;;;;;;;;;;;;;;;;;;;;;
2024/01/20 10:14:27;;;;;;;2.50;1.30;;;;;;;-145.06;100.00;60892.56;5800378;23;20016;-91
2024/01/20 10:25:02;;;;;;;2.23;1.60;;;;;;;-145.06;100.00;60892.56;5865837;23;20026;-90
2024/01/20 10:32:29;;;;;;;3.17;1.77;;;;;;;-145.06;100.00;60892.56;5770888;23;20020;-91
2024/01/20 10:35:42;;;;;;;2.67;1.60;;;;;;;-145.06;100.00;60892.56;5761551;23;20037;-91
2024/01/20 10:39:12;;;;;;;3.10;2.13;;;;;;;-145.06;100.00;60892.56;5851431;23;20010;-90
2024/01/20 10:47:01;;;;;;;3.90;2.27;;;;;;;-145.06;100.00;60892.56;5876033;23;20019;-90
2024/01/20 10:49:49;;;;;;;6.20;2.97;;;;;;;-145.06;100.00;60892.56;5886431;23;20007;-90
2024/01/20 10:52:31;;;;;;;8.97;3.90;;;;;;;-145.06;100.00;60892.56;5851341;23;20014;-90
2024/01/20 10:55:14;;;;;;;18.83;7.03;;;;;;;-145.06;100.00;60892.56;5874618;23;20034;-91
2024/01/20 10:57:54;;;;;;;26.30;8.97;;;;;;;-145.06;100.00;60892.56;5874869;23;20038;-89
2024/01/20 11:00:36;;;;;;;22.35;8.52;;;;;;;-145.06;100.00;60892.56;5875353;23;20010;-90
2024/01/20 11:04:01;;;;;;;25.33;8.95;;;;;;;-145.06;100.00;60892.56;5877366;23;20011;-90
2024/01/20 11:07:01;;;;;;;16.93;6.83;;;;;;;-145.06;100.00;60892.56;5877624;23;20010;-90
2024/01/20 11:10:19;;;;;;;16.30;6.00;;;;;;;-145.06;100.00;60892.56;5875866;23;20018;-92
2024/01/20 11:13:45;;;;;;;10.52;4.90;;;;;;;-145.06;100.00;60892.56;5876904;23;20010;-92
2024/01/20 11:17:01;;;;;;;10.60;4.88;;;;;;;-145.06;100.00;60892.56;5877996;23;20007;-89
2024/01/20 11:23:23;;;;;;;8.40;3.95;;;;;;;-145.06;100.00;60892.56;5885605;23;20030;-92
2024/01/20 11:26:33;;;;;;;5.97;3.53;;;;;;;-145.06;100.00;60892.56;5873037;23;20014;-90
2024/01/20 11:29:26;;;;;;;6.95;3.55;;;;;;;-145.06;100.00;60892.56;5875252;23;20014;-90
2024/01/20 11:32:05;;;;;;;7.72;3.80;;;;;;;-145.06;100.00;60892.56;5878431;23;20006;-91
2024/01/20 11:34:49;;;;;;;5.50;3.22;;;;;;;-145.06;100.00;60892.56;5877192;23;20003;-89
2024/01/20 11:37:33;;;;;;;6.07;3.22;;;;;;;-145.06;100.00;60892.56;5876931;23;20010;-88
2024/01/20 11:40:19;;;;;;;6.07;3.33;;;;;;;-145.06;100.00;60892.56;5877815;23;20014;-90
2024/01/20 11:43:27;;;;;;;4.50;2.72;;;;;;;-145.06;100.00;60892.56;5877568;23;20081;-91
2024/01/20 11:46:09;;;;;;;4.03;2.30;;;;;;;-145.06;100.00;60892.56;5878231;23;20011;-89
2024/01/20 11:48:54;;;;;;;4.80;3.05;;;;;;;-145.06;100.00;60892.56;5877735;23;20007;-89
2024/01/20 11:51:38;;;;;;;4.38;2.40;;;;;;;-145.06;100.00;60892.56;5878015;23;20022;-89
2024/01/20 11:54:23;;;;;;;3.28;2.10;;;;;;;-145.06;100.00;60892.56;5876301;23;20007;-90
2024/01/20 11:57:33;;;;;;;3.42;2.45;;;;;;;-145.06;100.00;60892.56;5877037;23;20018;-88
2024/01/20 12:00:14;;;;;;;;;;;;;;;-145.06;100.00;60892.56;5877682;23;20014;-90
2024/01/20 12:02:56;;;;;;;2.60;1.77;;;;;;;-145.06;100.00;60892.56;5877239;23;19909;-88
2024/01/20 12:05:54;;;;;;;3.05;2.00;;;;;;;-145.06;100.00;60892.56;5877229;23;20434;-89
2024/01/20 12:08:44;;;;;;;3.70;2.30;;;;;;;2.07;100.00;60892.56;5877538;23;20409;-91
2024/01/20 12:11:26;;;;;;;2.20;1.50;;;;;;;-145.06;100.00;60892.56;5877549;23;20014;-90
2024/01/20 12:14:16;;;;;;;3.08;1.85;;;;;;;-145.06;100.00;60892.56;5877611;23;20007;-90
2024/01/20 12:16:58;;;;;;;2.85;1.80;;;;;;;-145.06;100.00;60892.56;5877750;23;20432;-91
2024/01/20 12:19:53;;;;;;;1.67;1.40;;;;;;;-145.06;100.00;60892.56;5877170;23;20007;-90
2024/01/20 12:22:50;;;;;;;1.80;1.27;;;;;;;-145.06;100.00;60892.56;5878047;23;20002;-90
2024/01/20 12:25:32;;;;;;;1.63;1.25;;;;;;;-145.06;100.00;60892.56;5877393;23;20007;-90
2024/01/20 12:28:16;;;;;;;2.40;1.40;;;;;;;-145.06;100.00;60892.56;5888618;23;20314;-91
2024/01/20 12:30:58;;;;;;;1.27;1.05;;;;;;;-145.06;100.00;60892.56;5898930;23;20382;-90
2024/01/20 12:33:37;;;;;;;1.70;1.23;;;;;;;-145.06;100.00;60892.56;5877616;23;20010;-90
2024/01/20 12:36:38;;;;;;;1.40;1.17;;;;;;;-145.06;100.00;60892.56;5877271;23;20006;-91
2024/01/20 12:39:24;;;;;;;1.60;1.02;;;;;;;-145.06;100.00;60892.56;5879949;23;20310;-90
2024/01/20 12:42:05;;;;;;;1.38;1.15;;;;;;;-145.06;100.00;60892.56;5876915;23;20010;-90
2024/01/20 12:44:45;;;;;;;1.10;1.00;;;;;;;-145.06;100.00;60892.56;5877018;23;20014;-91
2024/01/20 12:47:30;;;;;;;1.08;0.98;;;;;;;-145.06;100.00;60892.56;5878174;23;20010;-89
2024/01/20 12:53:26;;;;;;;1.83;1.30;;;;;;;-145.06;100.00;60892.56;5886424;23;20006;-91
2024/01/20 12:56:08;;;;;;;1.58;1.23;;;;;;;-145.06;100.00;60892.56;5876557;23;20437;-89
2024/01/20 12:58:50;;;;;;;1.48;1.02;;;;;;;-145.06;100.00;60892.56;5897146;23;20327;-90
2024/01/20 13:01:31;;;;;;;1.77;1.30;;;;;;;-145.06;100.00;60892.56;5876840;23;20010;-90
2024/01/20 13:04:13;;;;;;;1.10;1.00;;;;;;;-145.06;100.00;60892.56;5876683;23;20315;-90
2024/01/20 13:07:18;;;;;;;1.15;1.00;;;;;;;-145.06;100.00;60892.56;5877171;23;20015;-90
2024/01/20 13:10:00;;;;;;;1.90;1.13;;;;;;;-145.06;100.00;60892.56;5878148;23;20010;-90
2024/01/20 13:12:46;;;;;;;2.10;1.48;;;;;;;-145.06;100.00;60892.56;5877109;23;20314;-90
2024/01/20 13:15:34;;;;;;;2.28;1.60;;;;;;;-145.06;100.00;60892.56;5880329;23;20010;-90
2024/01/20 13:18:42;;;;;;;3.00;1.55;;;;;;;-145.06;100.00;60892.56;5881778;23;20010;-90
2024/01/20 13:28:26;;;;;;;;;;;;;;;;;;;;;
2024/01/20 13:31:11;;;;;;;4.93;2.42;;;;;;;-145.06;100.00;60892.56;5889087;23;20085;-90
2024/01/20 13:37:10;;;;;;;3.35;2.08;;;;;;;-145.06;100.00;60892.56;5889193;23;20002;-91
2024/01/20 13:43:24;;;;;;;2.28;1.75;;;;;;;-145.06;100.00;60892.56;5889421;23;20441;-90
2024/01/20 13:46:17;;;;;;;2.45;1.63;;;;;;;-145.06;100.00;60892.56;5876665;23;20011;-90
2024/01/20 13:56:04;;;;;;;2.80;1.70;;;;;;;-145.06;100.00;60892.56;5887412;23;20015;-90
2024/01/20 14:02:50;;;;;;;2.28;1.50;;;;;;;-145.06;100.00;60892.56;5945574;23;20045;-90
2024/01/20 14:05:31;;;;;;;2.65;1.67;;;;;;;-145.06;100.00;60892.56;5930116;23;20010;-89
2024/01/20 14:09:13;;;;;;;;;;;;;;;;;;;;;
2024/01/20 14:11:44;;;;;;;1.65;1.23;;;;;;;-145.06;100.00;60892.56;5879606;23;20010;-90
2024/01/20 14:15:13;;;;;;;;;;;;;;;;;;;;;
2024/01/20 14:18:01;;;;;;;1.85;1.55;;;;;;;-145.06;100.00;60892.56;5889064;23;20010;-91
2024/01/20 14:21:17;;;;;;;;;;;;;;;;;;;;;
2024/01/20 14:28:03;;;;;;;1.60;1.48;;;;;;;-145.06;100.00;60892.56;5889064;23;20011;-90
2024/01/20 14:31:01;;;;;;;1.70;1.40;;;;;;;-145.06;100.00;60892.56;5878312;23;20006;-91
2024/01/20 14:33:48;;;;;;;2.28;1.55;;;;;;;-145.06;100.00;60892.56;5875823;23;20002;-91
2024/01/20 14:36:47;;;;;;;2.25;1.50;;;;;;;-145.06;100.00;60892.56;5875599;23;20006;-91
2024/01/20 14:39:32;;;;;;;2.03;1.52;;;;;;;-145.06;100.00;60892.56;5898617;23;20011;-90
2024/01/20 14:42:20;;;;;;;2.22;1.58;;;;;;;-145.06;100.00;60892.56;5877859;23;20010;-90
2024/01/20 14:45:08;;;;;;;1.92;1.50;;;;;;;-145.06;100.00;60892.56;5877471;23;20034;-90
2024/01/20 14:48:00;;;;;;;2.15;1.40;;;;;;;-145.06;100.00;60892.56;5877712;23;20014;-91
2024/01/20 14:51:34;;;;;;;2.58;1.90;;;;;;;-145.06;100.00;60892.56;5877399;23;20006;-90